Aeroporto :
LOGIN :

Iscrizione | Disclaimer

   EN    FR    IT 

 










Sommario :    VFR   VFR Marginale   IFR   IFR Intensivo   IFR Molto Intensivo
Visibilità : 
Base nubi : 
>= 8 km
>= 3000ft
5 / 8 km
1000 / 3000 ft
1500m / 5 km
500 / 1000 ft
800 / 1500m
200 / 500 ft
< 800m
< 200 ft
Simboli :   Temporali  Nebbia  Neve Forte  Precipitazioni Forti  Vento > 20 kt
SIGMETs :   Varie  Temporali  Ghiacco  Turbolenza  Onda orograficha  Ceneri Vulcaniche






- Altitudine del aeroporto : 580 ft


LFOA - Avord

ULTIMO METAR :
  • 122030Z AUTO 02006KT CAVOK 22/17 Q1024

METARs OBSOLETI :
  • 122000Z AUTO 04005KT CAVOK 23/17 Q1023
  • 121930Z AUTO 03007KT CAVOK 24/17 Q1023
  • 121900Z AUTO 03009KT CAVOK 25/17 Q1023
  • 121830Z AUTO 03009KT CAVOK 26/17 Q1023
  • 121800Z AUTO 02009KT CAVOK 27/17 Q1022

TAF TAF LFOA
Valido dal 12 a 09 ore il 13 a 09 ore UTC


120800Z 1209/1309 VRB02KT CAVOK TX30/1214Z TN17/1304Z
BECMG 1209/1211 04010KT



MetMap, La meteo Aeronautica in un colpo d'occhio ! - Copyright ORBIFLY Dicembre 2007 - Disclaimer

ORBIFLY MET'MAP TEAM :

Programmazione e sviluppo : Alexandra Zaïnal
Concezione : Baudouin d'Aumeries
Aiuto per la programmazione : Marc-Olivier Méhu
Supporto tecnico e logistico : Manuel Goepfert
Aiuto per la traduzione : Arnaldo La Scala

Contatto : metmap@orbifly.com




FONTI E CREDITI :

   NOAA